Time;durP1;ratioP1;P1;durP2;ratioP2;P2;SDS_P1;SDS_P2;PMS_P1;PMS_P2;Temp;Humidity;BMP_temperature;BMP_pressure;BME280_temperature;BME280_humidity;BME280_pressure;Samples;Min_cycle;Max_cycle;Signal;HPM_P1;HPM_P2
2022/05/07 00:00:36;;;;;;;12.90;8.57;;;;;;;11.09;nan;101105.41;10521912;28;20047;-77
2022/05/07 00:05:38;;;;;;;13.32;7.63;;;;;;;10.97;nan;101057.97;10520738;28;20070;-77
2022/05/07 00:10:42;;;;;;;12.07;7.78;;;;;;;10.93;nan;101046.53;10521265;28;20070;-77
2022/05/07 00:18:01;;;;;;;15.80;9.68;;;;;;;10.98;nan;101064.97;10521764;28;20071;-77
2022/05/07 00:21:05;;;;;;;13.95;9.25;;;;;;;10.94;nan;101052.66;10515578;28;20894;-77
2022/05/07 00:26:07;;;;;;;14.07;9.00;;;;;;;10.91;nan;101047.34;10520308;28;20040;-77
2022/05/07 00:31:08;;;;;;;16.15;9.65;;;;;;;10.92;nan;101054.38;10519393;28;20134;-77
2022/05/07 00:36:10;;;;;;;16.15;10.20;;;;;;;10.96;nan;101071.94;10520508;28;20143;-77
2022/05/07 00:41:12;;;;;;;13.98;9.38;;;;;;;10.96;nan;101080.66;10521766;28;20050;-78
2022/05/07 00:46:14;;;;;;;16.00;10.40;;;;;;;10.99;nan;101098.19;10524464;28;20046;-76
2022/05/07 00:51:34;;;;;;;18.73;11.05;;;;;;;11.00;nan;101105.19;10541259;28;20056;-76
2022/05/07 00:56:36;;;;;;;;;;;;;;;11.06;nan;101131.50;10498368;28;20048;-76
2022/05/07 01:01:40;;;;;;;16.00;11.13;;;;;;;11.10;nan;101154.31;10527412;28;19982;-77
2022/05/07 01:06:42;;;;;;;16.42;10.75;;;;;;;11.10;nan;101154.31;10525755;28;20123;-76
2022/05/07 01:11:46;;;;;;;14.57;9.90;;;;;;;11.12;nan;101165.72;10528910;28;20506;-76
2022/05/07 01:16:48;;;;;;;14.85;10.00;;;;;;;11.11;nan;101171.81;10523056;28;20044;-76
2022/05/07 01:21:50;;;;;;;18.20;11.15;;;;;;;11.13;nan;101175.34;10527209;28;20037;-77
2022/05/07 01:26:52;;;;;;;27.35;11.77;;;;;;;11.15;nan;101185.84;10512349;28;20078;-77
2022/05/07 01:31:54;;;;;;;17.55;10.60;;;;;;;11.18;nan;101200.78;10522329;28;20040;-77
2022/05/07 01:36:56;;;;;;;17.33;11.02;;;;;;;11.19;nan;101215.66;10522609;28;20716;-76
2022/05/07 01:41:58;;;;;;;16.55;10.80;;;;;;;11.20;nan;101226.19;10531047;28;20079;-76
2022/05/07 01:52:20;;;;;;;19.63;11.57;;;;;;;11.19;nan;101223.53;10503791;28;20496;-76
2022/05/07 01:57:21;;;;;;;17.02;11.00;;;;;;;11.14;nan;101205.94;10509874;28;20062;-76
2022/05/07 02:02:24;;;;;;;20.80;10.90;;;;;;;11.07;nan;101187.44;10511490;28;20065;-78
2022/05/07 02:07:26;;;;;;;19.02;10.88;;;;;;;11.04;nan;101174.28;10512351;28;20040;-76
2022/05/07 02:12:29;;;;;;;18.15;12.40;;;;;;;11.00;nan;101156.72;10509782;28;20048;-77
2022/05/07 02:17:31;;;;;;;20.08;11.77;;;;;;;11.00;nan;101159.34;10526554;28;20109;-76
2022/05/07 02:22:33;;;;;;;19.90;13.15;;;;;;;10.99;nan;101161.09;10517989;28;20067;-77
2022/05/07 02:27:35;;;;;;;22.92;14.40;;;;;;;10.98;nan;101172.41;10526106;28;20070;-76
2022/05/07 02:32:38;;;;;;;23.35;15.20;;;;;;;10.98;nan;101168.91;10517084;28;20043;-76
2022/05/07 02:37:43;;;;;;;31.02;15.60;;;;;;;11.01;nan;101185.56;10525802;28;20047;-77
2022/05/07 02:42:44;;;;;;;20.10;14.20;;;;;;;11.03;nan;101196.97;10523470;28;20044;-76
2022/05/07 02:47:51;;;;;;;24.50;14.40;;;;;;;11.03;nan;101202.19;10523427;28;20093;-76
2022/05/07 02:52:55;;;;;;;25.52;16.27;;;;;;;11.08;nan;101221.53;10506607;28;20048;-76
2022/05/07 02:57:56;;;;;;;24.10;14.35;;;;;;;11.10;nan;101232.94;10524757;28;20036;-76
2022/05/07 03:02:59;;;;;;;31.60;15.80;;;;;;;11.12;nan;101244.34;10529520;28;20048;-76
2022/05/07 03:08:03;;;;;;;24.67;15.25;;;;;;;11.19;nan;101275.94;10513440;28;20135;-77
2022/05/07 03:13:08;;;;;;;27.83;16.48;;;;;;;11.14;nan;101260.13;10510375;28;20084;-76
2022/05/07 03:18:12;;;;;;;24.92;15.95;;;;;;;11.09;nan;101246.91;10524979;28;20036;-76
2022/05/07 03:23:13;;;;;;;24.88;16.58;;;;;;;11.04;nan;101227.56;10523606;28;20109;-77
2022/05/07 03:28:17;;;;;;;29.02;17.75;;;;;;;11.02;nan;101223.13;10508725;28;20078;-76
2022/05/07 03:33:19;;;;;;;24.10;16.30;;;;;;;10.98;nan;101216.94;10506453;28;20036;-77
2022/05/07 03:38:22;;;;;;;26.55;17.27;;;;;;;10.99;nan;101218.72;10521909;28;20068;-76
2022/05/07 03:43:31;;;;;;;26.42;16.35;;;;;;;10.95;nan;101201.16;10499336;28;20090;-76
2022/05/07 03:48:32;;;;;;;26.92;16.30;;;;;;;10.93;nan;101202.88;10523403;28;20040;-76
2022/05/07 03:53:36;;;;;;;28.13;18.13;;;;;;;10.87;nan;101181.75;10509072;28;20416;-76
2022/05/07 03:58:45;;;;;;;;;;;;;;;10.84;nan;101168.59;10521164;28;20519;-76
2022/05/07 04:03:54;;;;;;;28.90;17.77;;;;;;;10.82;nan;101167.69;10506197;28;20000;-76
2022/05/07 04:08:56;;;;;;;28.38;17.67;;;;;;;10.82;nan;101167.69;10509850;28;20059;-76
2022/05/07 04:13:58;;;;;;;30.20;18.23;;;;;;;10.83;nan;101174.69;10520372;28;20590;-76
2022/05/07 04:19:01;;;;;;;33.50;18.42;;;;;;;10.88;nan;101201.88;10531233;28;20044;-76
2022/05/07 04:24:05;;;;;;;30.48;18.55;;;;;;;10.94;nan;101231.72;10512495;28;20059;-76
2022/05/07 04:29:09;;;;;;;29.48;19.25;;;;;;;11.01;nan;101258.06;10505797;28;20507;-76
2022/05/07 04:34:11;;;;;;;31.80;20.55;;;;;;;11.07;nan;101290.53;10520688;28;20515;-77
2022/05/07 04:39:14;;;;;;;33.75;19.83;;;;;;;11.06;nan;101293.13;10520131;28;20063;-76
2022/05/07 04:44:31;;;;;;;28.20;19.25;;;;;;;11.17;nan;101337.91;10519714;28;20048;-76
2022/05/07 04:49:33;;;;;;;35.45;19.95;;;;;;;11.20;nan;101353.72;10522513;28;20606;-77
2022/05/07 04:54:35;;;;;;;34.45;20.88;;;;;;;11.28;nan;101395.00;10519492;28;20732;-76
2022/05/07 04:59:39;;;;;;;32.03;20.52;;;;;;;11.41;nan;101448.63;10512812;28;20037;-76
2022/05/07 05:04:45;;;;;;;32.00;20.70;;;;;;;11.59;nan;101523.34;10511179;28;20044;-76
2022/05/07 05:09:50;;;;;;;35.25;20.23;;;;;;;11.68;nan;101571.69;10519366;28;20032;-76
2022/05/07 05:15:07;;;;;;;33.42;22.92;;;;;;;11.80;nan;101620.06;10510123;28;20047;-77
2022/05/07 05:20:26;;;;;;;33.33;21.60;;;;;;;11.86;nan;101651.72;10510875;28;20054;-77
2022/05/07 05:25:38;;;;;;;32.72;21.95;;;;;;;11.94;nan;101675.56;10515300;28;20450;-75
2022/05/07 05:30:40;;;;;;;41.17;23.33;;;;;;;11.97;nan;101696.66;10520324;28;20033;-79
2022/05/07 05:35:47;;;;;;;35.47;22.60;;;;;;;12.07;nan;101745.00;10497233;28;20086;-79
2022/05/07 05:40:49;;;;;;;34.20;22.15;;;;;;;12.07;nan;101753.78;10535418;28;20055;-79
2022/05/07 05:45:51;;;;;;;37.60;23.92;;;;;;;11.99;nan;101719.47;10532757;28;20038;-78
2022/05/07 05:50:53;;;;;;;36.85;24.25;;;;;;;12.13;nan;101785.44;10523201;28;20106;-78
2022/05/07 05:55:55;;;;;;;36.33;23.23;;;;;;;12.30;nan;101848.91;10523596;28;20068;-78
2022/05/07 06:01:07;;;;;;;38.70;23.50;;;;;;;12.48;nan;101932.56;10516013;28;20573;-78
2022/05/07 06:06:18;;;;;;;37.92;23.08;;;;;;;12.60;nan;101986.31;10507243;28;20044;-78
2022/05/07 06:11:20;;;;;;;37.70;24.42;;;;;;;12.69;nan;102031.25;10508980;28;20070;-77
2022/05/07 06:16:22;;;;;;;39.65;24.70;;;;;;;12.77;nan;102071.75;10528652;28;20040;-77
2022/05/07 06:21:26;;;;;;;37.10;24.45;;;;;;;12.90;nan;102117.69;10507340;28;20254;-77
2022/05/07 06:31:48;;;;;;;38.75;23.88;;;;;;;13.37;nan;102327.75;10507645;28;20047;-76
2022/05/07 06:36:51;;;;;;;39.53;24.60;;;;;;;13.71;nan;102465.63;10520701;28;20044;-78
2022/05/07 06:41:53;;;;;;;36.90;24.50;;;;;;;13.77;nan;102502.69;10521647;28;20043;-77
2022/05/07 06:46:56;;;;;;;33.58;22.98;;;;;;;13.69;nan;102472.56;10523695;28;20044;-77
2022/05/07 06:51:59;;;;;;;41.55;25.35;;;;;;;13.60;nan;102431.97;10495283;28;20036;-77
2022/05/07 06:57:03;;;;;;;40.15;25.80;;;;;;;13.73;nan;102495.53;10522889;28;20051;-75
2022/05/07 07:02:04;;;;;;;40.75;26.02;;;;;;;13.84;nan;102546.78;10531000;28;20044;-74
2022/05/07 07:07:07;;;;;;;39.30;25.75;;;;;;;14.03;nan;102627.25;10519101;28;20607;-75
2022/05/07 07:12:10;;;;;;;40.55;27.45;;;;;;;14.74;nan;102929.16;10515626;28;20044;-75
2022/05/07 07:17:11;;;;;;;40.10;26.27;;;;;;;15.34;nan;103188.09;10508909;28;20035;-75
2022/05/07 07:22:13;;;;;;;36.67;23.60;;;;;;;15.53;nan;103275.84;10495267;28;20538;-73
2022/05/07 07:27:15;;;;;;;34.58;23.20;;;;;;;15.63;nan;103322.88;10505347;28;20071;-72
2022/05/07 07:32:16;;;;;;;39.55;21.50;;;;;;;15.83;nan;103404.63;10494418;28;20044;-74
2022/05/07 07:37:20;;;;;;;33.03;20.33;;;;;;;15.99;nan;103480.06;10496281;28;20032;-71
2022/05/07 07:42:23;;;;;;;30.38;19.63;;;;;;;16.90;nan;103883.91;10506871;28;20078;-74
2022/05/07 07:52:45;;;;;;;36.05;20.85;;;;;;;19.35;nan;104972.13;10503477;28;20725;-74
2022/05/07 07:57:47;;;;;;;29.02;18.05;;;;;;;19.79;nan;105159.50;10494994;28;20419;-72
2022/05/07 08:02:50;;;;;;;24.73;14.73;;;;;;;20.19;nan;105350.34;10510678;28;20469;-72
2022/05/07 08:13:14;;;;;;;18.08;11.20;;;;;;;20.81;nan;105617.03;10500518;28;20039;-75
2022/05/07 08:18:17;;;;;;;15.82;7.90;;;;;;;20.57;nan;105519.03;10509881;28;20040;-73
2022/05/07 08:23:18;;;;;;;20.08;9.88;;;;;;;20.75;nan;105576.78;10509123;28;20039;-72
2022/05/07 08:28:20;;;;;;;17.77;11.07;;;;;;;20.74;nan;105566.94;10513353;28;20048;-71
2022/05/07 08:33:22;;;;;;;16.50;10.13;;;;;;;20.92;nan;105647.78;10520518;28;20048;-72
2022/05/07 08:38:24;;;;;;;18.55;10.65;;;;;;;20.69;nan;105540.09;10521962;28;20048;-72
2022/05/07 08:43:31;;;;;;;13.90;8.77;;;;;;;20.91;nan;105623.72;10515903;28;20519;-72
2022/05/07 08:48:33;;;;;;;16.05;8.00;;;;;;;21.14;nan;105727.09;10517786;28;20086;-72
2022/05/07 08:53:35;;;;;;;13.25;7.63;;;;;;;20.56;nan;105447.97;10520763;28;20138;-73
2022/05/07 08:58:36;;;;;;;17.08;8.65;;;;;;;20.44;nan;105378.13;10498108;28;20708;-72
2022/05/07 09:03:40;;;;;;;16.70;8.73;;;;;;;20.75;nan;105510.19;10513146;28;20059;-72
2022/05/07 09:08:44;;;;;;;13.63;7.03;;;;;;;21.05;nan;105637.75;10524417;28;20438;-70
2022/05/07 09:13:46;;;;;;;15.07;8.35;;;;;;;;;;10506224;28;20056;-70
2022/05/07 09:18:48;;;;;;;18.65;8.75;;;;;;;;;;10515815;28;20094;-69
2022/05/07 09:23:55;;;;;;;21.13;8.88;;;;;;;;;;10512839;28;20047;-69
2022/05/07 09:28:57;;;;;;;33.88;9.82;;;;;;;;;;10495312;28;20051;-70
2022/05/07 09:39:19;;;;;;;15.20;7.97;;;;;;;;;;10489622;28;20044;-69
2022/05/07 09:44:24;;;;;;;14.10;7.28;;;;;;;;;;10514615;28;20052;-71
2022/05/07 09:49:28;;;;;;;13.57;7.30;;;;;;;;;;10528632;28;20046;-69
2022/05/07 09:59:51;;;;;;;15.70;7.60;;;;;;;19.70;nan;104914.38;10518342;28;20492;-71
2022/05/07 10:05:06;;;;;;;13.95;7.20;;;;;;;19.76;nan;104941.25;10509150;28;20040;-72
2022/05/07 10:10:24;;;;;;;17.52;9.20;;;;;;;20.21;nan;105126.84;10511952;28;20499;-73
2022/05/07 10:15:26;;;;;;;21.25;11.68;;;;;;;20.43;nan;105221.88;10505476;28;20498;-72
2022/05/07 10:20:37;;;;;;;17.77;11.60;;;;;;;20.30;nan;105162.78;10488465;28;20060;-76
2022/05/07 10:25:40;;;;;;;22.35;13.75;;;;;;;20.57;nan;105262.50;10488151;28;20491;-75
2022/05/07 10:30:57;;;;;;;23.00;14.25;;;;;;;20.86;nan;105378.41;10488149;28;20059;-75
2022/05/07 10:36:07;;;;;;;23.33;13.35;;;;;;;21.25;nan;105550.78;10498996;28;20067;-75
2022/05/07 10:41:11;;;;;;;21.58;12.48;;;;;;;21.63;nan;105720.69;10488910;28;20052;-75
2022/05/07 10:46:20;;;;;;;21.67;13.27;;;;;;;20.92;nan;105392.00;10494793;28;20097;-75
2022/05/07 10:51:36;;;;;;;22.40;12.73;;;;;;;21.29;nan;105544.75;10489069;28;20087;-75
2022/05/07 10:56:47;;;;;;;20.20;12.13;;;;;;;21.40;nan;105571.94;10486627;28;20075;-76
2022/05/07 11:01:49;;;;;;;19.00;10.82;;;;;;;21.83;nan;105774.09;10457529;28;20052;-75
2022/05/07 11:06:53;;;;;;;18.33;11.00;;;;;;;22.12;nan;105892.97;10513802;28;20469;-75
2022/05/07 11:11:57;;;;;;;18.40;11.45;;;;;;;22.32;nan;105971.41;10505687;28;20044;-77
2022/05/07 11:17:01;;;;;;;19.83;11.95;;;;;;;21.91;nan;105778.03;10512716;28;20042;-76
2022/05/07 11:22:08;;;;;;;21.52;10.57;;;;;;;21.24;nan;105468.97;10512384;28;20617;-77
2022/05/07 11:27:12;;;;;;;20.10;10.23;;;;;;;20.94;nan;105323.72;10482968;28;20071;-74
2022/05/07 11:32:14;;;;;;;28.55;11.15;;;;;;;20.95;nan;105320.19;10504109;28;20470;-71
2022/05/07 11:37:23;;;;;;;20.52;11.27;;;;;;;20.92;nan;105300.50;10488052;28;20105;-73
2022/05/07 11:42:46;;;;;;;;;;;;;;;20.89;nan;105287.94;10501489;28;20041;-72
2022/05/07 11:48:06;;;;;;;17.60;9.63;;;;;;;20.66;nan;105173.28;10509524;28;20002;-73
2022/05/07 11:53:11;;;;;;;17.60;9.18;;;;;;;20.31;nan;105011.94;10498159;28;20502;-73
2022/05/07 11:58:14;;;;;;;15.30;9.18;;;;;;;20.04;nan;104878.63;10505635;28;20032;-73
2022/05/07 12:03:19;;;;;;;15.30;7.68;;;;;;;19.67;nan;104723.72;10513253;28;20044;-74
2022/05/07 12:08:23;;;;;;;17.02;7.93;;;;;;;19.47;nan;104627.19;10519737;28;20250;-70
2022/05/07 12:13:26;;;;;;;15.63;8.38;;;;;;;19.31;nan;104551.25;10511130;28;20123;-72
2022/05/07 12:18:31;;;;;;;14.40;8.48;;;;;;;19.23;nan;104504.84;10519660;28;20382;-71
2022/05/07 12:34:14;;;;;;;12.18;4.82;;;;;;;19.75;nan;104726.69;10523605;28;20467;-72
2022/05/07 12:39:16;;;;;;;10.07;4.85;;;;;;;19.90;nan;104783.19;10494748;28;20041;-69
2022/05/07 12:44:18;;;;;;;11.98;5.35;;;;;;;20.15;nan;104882.66;10511247;28;20431;-70
2022/05/07 12:49:21;;;;;;;10.82;5.45;;;;;;;20.10;nan;104866.50;10506428;28;20446;-71
2022/05/07 12:54:22;;;;;;;12.43;5.30;;;;;;;20.07;nan;104841.50;10523056;28;20044;-68
2022/05/07 12:59:24;;;;;;;13.00;5.43;;;;;;;19.81;nan;104724.31;10528921;28;20047;-69
2022/05/07 13:04:26;;;;;;;11.88;5.75;;;;;;;19.65;nan;104653.63;10528150;28;20074;-74
2022/05/07 13:09:29;;;;;;;11.50;5.90;;;;;;;19.41;nan;104549.84;10541502;28;20044;-74
2022/05/07 13:14:53;;;;;;;14.07;6.43;;;;;;;19.25;nan;104471.31;10501022;28;20059;-73
2022/05/07 13:19:54;;;;;;;12.30;6.63;;;;;;;19.40;nan;104532.13;10525658;28;20040;-70
2022/05/07 13:24:56;;;;;;;10.60;5.28;;;;;;;19.58;nan;104612.56;10528144;28;20059;-73
2022/05/07 13:29:59;;;;;;;9.38;4.85;;;;;;;19.18;nan;104443.56;10528018;28;20090;-73
2022/05/07 13:35:01;;;;;;;15.00;5.63;;;;;;;19.17;nan;104432.88;10518459;28;20045;-74
2022/05/07 13:40:03;;;;;;;13.27;5.93;;;;;;;18.98;nan;104343.63;10520197;28;20393;-74
2022/05/07 13:45:10;;;;;;;14.13;6.47;;;;;;;19.08;nan;104383.00;10528007;28;20062;-75
2022/05/07 13:50:12;;;;;;;11.13;5.70;;;;;;;19.27;nan;104466.03;10524981;28;20515;-71
2022/05/07 13:55:13;;;;;;;11.73;5.43;;;;;;;19.65;nan;104621.72;10524484;28;20549;-76
2022/05/07 14:00:16;;;;;;;12.80;5.28;;;;;;;19.78;nan;104676.31;10525433;28;20521;-75
2022/05/07 14:05:18;;;;;;;11.38;4.80;;;;;;;20.03;nan;104787.28;10526438;28;20050;-75
2022/05/07 14:10:20;;;;;;;14.30;5.38;;;;;;;19.52;nan;104567.16;10519199;28;20067;-73
2022/05/07 14:15:21;;;;;;;10.80;3.90;;;;;;;19.11;nan;104383.09;10529416;28;20105;-73
2022/05/07 14:20:23;;;;;;;7.78;4.00;;;;;;;19.17;nan;104407.25;10527890;28;20072;-73
2022/05/07 14:25:25;;;;;;;8.85;3.80;;;;;;;19.33;nan;104468.94;10528685;28;20518;-73
2022/05/07 14:30:26;;;;;;;8.85;4.47;;;;;;;18.81;nan;104250.94;10527097;28;20036;-73
2022/05/07 14:35:28;;;;;;;9.55;3.95;;;;;;;18.68;nan;104190.25;10514553;28;20559;-73
2022/05/07 14:40:33;;;;;;;7.15;3.05;;;;;;;18.34;nan;104043.94;10530053;28;20044;-74
2022/05/07 14:45:35;;;;;;;7.50;3.33;;;;;;;18.35;nan;104044.88;10509118;28;20461;-73
2022/05/07 14:50:37;;;;;;;10.15;4.90;;;;;;;18.48;nan;104105.50;10525358;28;20068;-73
2022/05/07 14:55:39;;;;;;;8.23;3.83;;;;;;;18.27;nan;103998.56;10524146;28;20518;-73
2022/05/07 15:00:41;;;;;;;7.25;3.35;;;;;;;18.04;nan;103903.19;10523943;28;20048;-71
2022/05/07 15:05:43;;;;;;;9.88;3.95;;;;;;;18.48;nan;104083.34;10523789;28;20076;-71
2022/05/07 15:10:45;;;;;;;9.07;3.70;;;;;;;18.68;nan;104180.53;10527273;28;20037;-71
2022/05/07 15:15:47;;;;;;;8.63;3.50;;;;;;;19.05;nan;104338.63;10514887;28;20048;-73
2022/05/07 15:20:49;;;;;;;7.07;3.20;;;;;;;19.46;nan;104494.25;10498577;28;20040;-71
2022/05/07 15:25:51;;;;;;;8.95;2.92;;;;;;;19.31;nan;104438.75;10501407;28;20068;-72
2022/05/07 15:30:53;;;;;;;9.60;2.50;;;;;;;19.19;nan;104378.97;10508886;28;20033;-74
2022/05/07 15:41:17;;;;;;;5.43;2.15;;;;;;;18.63;nan;104141.38;10507786;28;20072;-75
2022/05/07 15:46:19;;;;;;;5.68;2.92;;;;;;;18.35;nan;104010.38;10498029;28;20037;-73
2022/05/07 15:51:21;;;;;;;6.22;2.88;;;;;;;18.02;nan;103873.06;10501610;28;20029;-73
2022/05/07 15:56:23;;;;;;;7.82;3.50;;;;;;;17.83;nan;103792.88;10511419;28;20050;-72
2022/05/07 16:01:24;;;;;;;11.23;3.63;;;;;;;17.56;nan;103675.31;10511418;28;20504;-71
2022/05/07 16:06:27;;;;;;;10.40;3.83;;;;;;;17.42;nan;103616.59;10508872;28;20079;-72
2022/05/07 16:11:28;;;;;;;9.90;3.42;;;;;;;17.58;nan;103678.91;10503560;28;20113;-72
2022/05/07 16:16:30;;;;;;;7.50;2.85;;;;;;;17.62;nan;103696.72;10504534;28;20043;-71
2022/05/07 16:21:31;;;;;;;7.00;2.33;;;;;;;17.48;nan;103630.03;10501756;28;20049;-71
2022/05/07 16:26:34;;;;;;;7.72;2.85;;;;;;;17.69;nan;103717.28;10498772;28;20046;-69
2022/05/07 16:31:35;;;;;;;12.25;2.88;;;;;;;17.39;nan;103588.25;10514013;28;20066;-70
2022/05/07 16:36:38;;;;;;;8.48;3.03;;;;;;;17.14;nan;103486.81;10520346;28;20062;-71
2022/05/07 16:41:39;;;;;;;7.05;2.60;;;;;;;17.19;nan;103505.50;10517248;28;20059;-70
2022/05/07 16:46:42;;;;;;;8.43;2.40;;;;;;;17.31;nan;103555.31;10506883;28;20040;-73
2022/05/07 16:51:45;;;;;;;7.88;2.47;;;;;;;17.05;nan;103449.44;10489472;28;20032;-71
2022/05/07 16:56:47;;;;;;;8.27;2.08;;;;;;;17.08;nan;103460.16;10508928;28;20086;-71
2022/05/07 17:01:48;;;;;;;9.85;2.42;;;;;;;17.06;nan;103445.94;10520458;28;20040;-80
2022/05/07 17:06:50;;;;;;;8.82;2.53;;;;;;;16.57;nan;103249.47;10516522;28;20139;-79
2022/05/07 17:11:53;;;;;;;10.25;3.00;;;;;;;16.24;nan;103098.56;10522973;28;20584;-73
2022/05/07 17:16:54;;;;;;;10.52;2.85;;;;;;;16.41;nan;103167.84;10504563;28;20037;-72
2022/05/07 17:21:56;;;;;;;10.68;2.83;;;;;;;16.03;nan;103017.81;10500088;28;20036;-71
2022/05/07 17:26:58;;;;;;;12.75;4.47;;;;;;;15.70;nan;102870.63;10503401;28;20675;-74
2022/05/07 17:32:02;;;;;;;9.93;3.80;;;;;;;15.31;nan;102712.88;10509323;28;20032;-74
2022/05/07 17:37:05;;;;;;;12.32;4.55;;;;;;;14.69;nan;102456.16;10499514;28;20044;-77
2022/05/07 17:42:07;;;;;;;11.13;4.82;;;;;;;14.38;nan;102340.25;10497645;28;20090;-77
2022/05/07 17:47:09;;;;;;;10.73;4.53;;;;;;;14.09;nan;102213.91;10492986;28;20040;-74
2022/05/07 17:52:10;;;;;;;12.55;5.13;;;;;;;13.87;nan;102124.69;10515710;28;20065;-78
2022/05/07 17:57:12;;;;;;;11.82;4.93;;;;;;;13.69;nan;102051.41;10515357;28;20040;-77
2022/05/07 18:02:14;;;;;;;13.43;5.35;;;;;;;13.52;nan;101982.59;10524299;28;20141;-78
2022/05/07 18:07:16;;;;;;;11.32;5.35;;;;;;;13.17;nan;101844.06;10501969;28;20089;-81
2022/05/07 18:12:18;;;;;;;22.00;10.48;;;;;;;12.89;nan;101726.88;10527504;28;20529;-79
2022/05/07 18:17:21;;;;;;;15.32;7.18;;;;;;;12.63;nan;101629.94;10506189;28;20045;-79
2022/05/07 18:22:24;;;;;;;12.13;5.00;;;;;;;12.45;nan;101549.00;10499000;28;20329;-80
2022/05/07 18:27:25;;;;;;;17.30;5.10;;;;;;;12.12;nan;101418.75;10517372;28;20062;-79
2022/05/07 18:32:27;;;;;;;14.50;5.10;;;;;;;11.92;nan;101344.81;10487609;28;20068;-78
2022/05/07 18:42:50;;;;;;;15.52;8.27;;;;;;;11.50;nan;101178.72;10511260;28;20032;-77
2022/05/07 18:47:52;;;;;;;16.70;6.32;;;;;;;11.38;nan;101128.66;10517653;28;20044;-76
2022/05/07 18:52:59;;;;;;;24.73;8.52;;;;;;;11.22;nan;101075.03;10520981;28;20971;-77
2022/05/07 18:58:24;;;;;;;12.02;4.93;;;;;;;11.08;nan;101013.59;10520992;28;20044;-77
2022/05/07 19:03:26;;;;;;;18.92;7.07;;;;;;;11.03;nan;100996.94;10518267;28;20048;-77
2022/05/07 19:08:28;;;;;;;17.75;5.97;;;;;;;10.95;nan;100960.97;10502357;28;20055;-78
2022/05/07 19:13:30;;;;;;;14.82;6.50;;;;;;;10.77;nan;100903.91;10514952;28;20048;-78
2022/05/07 19:18:32;;;;;;;14.90;7.20;;;;;;;10.75;nan;100889.03;10513231;28;20048;-77
2022/05/07 19:23:39;;;;;;;18.05;6.35;;;;;;;10.69;nan;100874.09;10505763;28;20044;-79
2022/05/07 19:28:41;;;;;;;13.10;4.93;;;;;;;10.77;nan;100898.66;10505836;28;20044;-79
2022/05/07 19:33:43;;;;;;;16.10;5.85;;;;;;;10.70;nan;100880.19;10520304;28;20044;-79
2022/05/07 19:38:46;;;;;;;14.02;5.03;;;;;;;10.71;nan;100890.69;10519844;28;20029;-77
2022/05/07 19:43:47;;;;;;;19.60;6.35;;;;;;;10.66;nan;100874.03;10516302;28;20054;-77
2022/05/07 19:48:49;;;;;;;16.15;5.50;;;;;;;10.66;nan;100871.41;10526490;28;20040;-77
2022/05/07 19:53:54;;;;;;;14.18;4.65;;;;;;;10.57;nan;100835.47;10534210;28;20048;-78
2022/05/07 19:58:56;;;;;;;15.38;5.07;;;;;;;10.46;nan;100787.25;10525506;28;20042;-79
2022/05/07 20:03:58;;;;;;;16.17;4.55;;;;;;;10.35;nan;100752.16;10526856;28;20055;-80
2022/05/07 20:09:00;;;;;;;16.45;4.90;;;;;;;10.23;nan;100705.69;10513172;28;20633;-78
2022/05/07 20:14:02;;;;;;;14.98;4.82;;;;;;;10.13;nan;100675.84;10536604;28;20086;-80
2022/05/07 20:19:04;;;;;;;19.00;4.75;;;;;;;10.02;nan;100631.22;10505817;28;20056;-78
2022/05/07 20:24:06;;;;;;;20.33;5.20;;;;;;;9.88;nan;100572.56;10494568;28;20043;-78
2022/05/07 20:29:08;;;;;;;23.30;4.55;;;;;;;9.78;nan;100536.66;10511409;28;20040;-78
2022/05/07 20:34:13;;;;;;;17.52;3.97;;;;;;;9.71;nan;100506.91;10533400;28;20052;-78
2022/05/07 20:39:15;;;;;;;18.45;3.72;;;;;;;9.65;nan;100499.88;10513572;28;20050;-78
2022/05/07 20:49:38;;;;;;;14.43;3.97;;;;;;;9.47;nan;100424.66;10534853;28;20067;-78
2022/05/07 20:54:39;;;;;;;24.10;3.53;;;;;;;9.43;nan;100401.03;10534967;28;20070;-77
2022/05/07 20:59:43;;;;;;;17.95;3.75;;;;;;;9.33;nan;100374.75;10534153;28;20047;-78
2022/05/07 21:04:51;;;;;;;;;;;;;;;9.20;nan;100324.06;10537122;28;20047;-78
2022/05/07 21:09:53;;;;;;;24.92;3.60;;;;;;;9.15;nan;100302.19;10541088;28;19924;-77
2022/05/07 21:14:55;;;;;;;23.75;3.72;;;;;;;9.05;nan;100262.88;10532047;28;20043;-78
2022/05/07 21:19:59;;;;;;;18.65;3.75;;;;;;;8.98;nan;100239.28;10543558;28;20043;-77
2022/05/07 21:30:39;;;;;;;24.13;4.32;;;;;;;8.79;nan;100167.63;10543235;28;20491;-78
2022/05/07 21:35:42;;;;;;;18.65;3.85;;;;;;;8.74;nan;100151.03;10544577;28;20047;-77
2022/05/07 21:40:45;;;;;;;15.15;2.88;;;;;;;8.65;nan;100120.44;10546776;28;20052;-77
2022/05/07 21:45:47;;;;;;;20.48;4.53;;;;;;;8.62;nan;100109.09;10535019;28;20051;-78
2022/05/07 21:56:02;;;;;;;17.77;4.13;;;;;;;8.40;nan;100030.47;10540098;28;20414;-77
2022/05/07 22:01:08;;;;;;;21.25;4.78;;;;;;;8.28;nan;99986.84;10521888;28;20036;-75
2022/05/07 22:06:13;;;;;;;20.30;4.13;;;;;;;8.23;nan;99967.66;10538342;28;20044;-76
2022/05/07 22:11:15;;;;;;;22.25;3.83;;;;;;;8.20;nan;99954.56;10541249;28;20044;-76
2022/05/07 22:16:16;;;;;;;20.30;4.18;;;;;;;8.10;nan;99918.78;10538929;28;20052;-76
2022/05/07 22:21:19;;;;;;;23.98;4.13;;;;;;;8.01;nan;99882.19;10539554;28;20044;-76
2022/05/07 22:26:21;;;;;;;19.15;4.22;;;;;;;7.94;nan;99857.75;10522095;28;20040;-76
2022/05/07 22:31:24;;;;;;;21.80;4.10;;;;;;;7.88;nan;99834.22;10534317;28;20032;-76
2022/05/07 22:36:26;;;;;;;19.58;3.53;;;;;;;7.76;nan;99794.13;10516157;28;20105;-77
2022/05/07 22:41:29;;;;;;;17.13;4.20;;;;;;;7.65;nan;99760.97;10525703;28;20041;-75
2022/05/07 22:46:31;;;;;;;15.32;3.55;;;;;;;7.63;nan;99734.00;10528288;28;20055;-76
2022/05/07 22:51:33;;;;;;;19.17;3.75;;;;;;;7.60;nan;99733.09;10496993;28;20111;-76
2022/05/07 22:56:36;;;;;;;24.10;4.60;;;;;;;7.58;nan;99731.34;10518443;28;20048;-75
2022/05/07 23:01:37;;;;;;;24.52;6.07;;;;;;;7.50;nan;99692.16;10536450;28;20514;-78
2022/05/07 23:06:39;;;;;;;20.50;3.88;;;;;;;7.40;nan;99670.38;10536732;28;20044;-75
2022/05/07 23:11:44;;;;;;;20.38;4.47;;;;;;;7.36;nan;99652.94;10536551;28;20487;-77
2022/05/07 23:16:46;;;;;;;27.60;4.00;;;;;;;7.29;nan;99624.22;10536047;28;20043;-76
2022/05/07 23:21:48;;;;;;;22.05;3.45;;;;;;;7.29;nan;99632.03;10535892;28;20043;-78
2022/05/07 23:26:49;;;;;;;18.88;3.67;;;;;;;7.24;nan;99609.41;10522110;28;20044;-77
2022/05/07 23:31:51;;;;;;;21.70;4.07;;;;;;;7.18;nan;99590.25;10526002;28;20044;-78
2022/05/07 23:36:53;;;;;;;;;;;;;;;7.16;nan;99582.41;10518672;28;20702;-78
2022/05/07 23:41:57;;;;;;;23.48;3.92;;;;;;;7.08;nan;99552.81;10520450;28;19927;-77
2022/05/07 23:47:00;;;;;;;27.80;4.07;;;;;;;6.99;nan;99524.94;10510711;28;20048;-78
2022/05/07 23:52:02;;;;;;;25.95;4.88;;;;;;;6.94;nan;99499.75;10531658;28;20185;-78
2022/05/07 23:57:04;;;;;;;19.55;3.70;;;;;;;6.92;nan;99497.13;10520769;28;20066;-77
